sensor_id;sensor_type;location;lat;lon;timestamp;pressure;altitude;pressure_sealevel;temperature;humidity
73240;BME280;61452;40.054;4.110;2024-01-15T00:04:47;101206.31;;;14.73;100.00
73240;BME280;61452;40.054;4.110;2024-01-15T00:09:49;101189.31;;;14.77;100.00
73240;BME280;61452;40.054;4.110;2024-01-15T00:14:53;101199.97;;;14.76;100.00
73240;BME280;61452;40.054;4.110;2024-01-15T00:19:55;101196.09;;;14.81;100.00
73240;BME280;61452;40.054;4.110;2024-01-15T00:24:57;101214.78;;;14.78;100.00
73240;BME280;61452;40.054;4.110;2024-01-15T00:30:00;101212.22;;;14.77;100.00
73240;BME280;61452;40.054;4.110;2024-01-15T00:35:02;101214.59;;;14.81;100.00
73240;BME280;61452;40.054;4.110;2024-01-15T00:40:05;101218.28;;;14.79;100.00
73240;BME280;61452;40.054;4.110;2024-01-15T00:45:09;101214.03;;;14.76;100.00
73240;BME280;61452;40.054;4.110;2024-01-15T00:50:11;101229.69;;;14.79;100.00
73240;BME280;61452;40.054;4.110;2024-01-15T00:55:14;101218.00;;;14.83;100.00
73240;BME280;61452;40.054;4.110;2024-01-15T01:00:16;101221.22;;;14.88;100.00
73240;BME280;61452;40.054;4.110;2024-01-15T01:05:18;101211.50;;;14.89;100.00
73240;BME280;61452;40.054;4.110;2024-01-15T01:10:21;101204.72;;;14.85;100.00
73240;BME280;61452;40.054;4.110;2024-01-15T01:15:23;101189.81;;;14.84;100.00
73240;BME280;61452;40.054;4.110;2024-01-15T01:20:26;101193.59;;;14.80;100.00
73240;BME280;61452;40.054;4.110;2024-01-15T01:25:28;101214.34;;;14.86;100.00
73240;BME280;61452;40.054;4.110;2024-01-15T01:30:30;101231.97;;;14.85;100.00
73240;BME280;61452;40.054;4.110;2024-01-15T01:35:32;101226.63;;;14.87;100.00
73240;BME280;61452;40.054;4.110;2024-01-15T01:40:35;101207.16;;;14.88;100.00
73240;BME280;61452;40.054;4.110;2024-01-15T01:45:37;101205.50;;;14.87;100.00
73240;BME280;61452;40.054;4.110;2024-01-15T01:50:40;101214.34;;;14.86;100.00
73240;BME280;61452;40.054;4.110;2024-01-15T01:55:43;101209.16;;;14.84;100.00
73240;BME280;61452;40.054;4.110;2024-01-15T02:00:46;101202.84;;;14.87;100.00
73240;BME280;61452;40.054;4.110;2024-01-15T02:05:49;101211.13;;;14.95;100.00
73240;BME280;61452;40.054;4.110;2024-01-15T02:10:51;101221.53;;;14.98;100.00
73240;BME280;61452;40.054;4.110;2024-01-15T02:15:53;101227.56;;;15.00;100.00
73240;BME280;61452;40.054;4.110;2024-01-15T02:20:55;101208.69;;;14.92;100.00
73240;BME280;61452;40.054;4.110;2024-01-15T02:25:58;101218.13;;;14.96;100.00
73240;BME280;61452;40.054;4.110;2024-01-15T02:31:00;101221.53;;;14.98;100.00
73240;BME280;61452;40.054;4.110;2024-01-15T02:36:02;101223.41;;;14.96;100.00
73240;BME280;61452;40.054;4.110;2024-01-15T02:41:05;101226.75;;;15.00;100.00
73240;BME280;61452;40.054;4.110;2024-01-15T02:46:07;101235.41;;;15.02;100.00
73240;BME280;61452;40.054;4.110;2024-01-15T02:51:09;101234.47;;;15.03;100.00
73240;BME280;61452;40.054;4.110;2024-01-15T02:56:11;101224.84;;;15.02;100.00
73240;BME280;61452;40.054;4.110;2024-01-15T03:01:13;101232.03;;;15.00;100.00
73240;BME280;61452;40.054;4.110;2024-01-15T03:06:15;101229.47;;;14.98;100.00
73240;BME280;61452;40.054;4.110;2024-01-15T03:11:17;101238.25;;;14.98;100.00
73240;BME280;61452;40.054;4.110;2024-01-15T03:16:20;101242.75;;;14.96;100.00
73240;BME280;61452;40.054;4.110;2024-01-15T03:21:22;101225.75;;;15.01;100.00
73240;BME280;61452;40.054;4.110;2024-01-15T03:26:24;101227.47;;;15.02;100.00
73240;BME280;61452;40.054;4.110;2024-01-15T03:31:26;101231.34;;;14.96;100.00
73240;BME280;61452;40.054;4.110;2024-01-15T03:36:29;101226.13;;;14.94;100.00
73240;BME280;61452;40.054;4.110;2024-01-15T03:41:31;101220.13;;;14.92;100.00
73240;BME280;61452;40.054;4.110;2024-01-15T03:46:33;101217.56;;;14.91;100.00
73240;BME280;61452;40.054;4.110;2024-01-15T03:51:35;101209.84;;;15.02;100.00
73240;BME280;61452;40.054;4.110;2024-01-15T03:56:37;101218.97;;;14.96;100.00
73240;BME280;61452;40.054;4.110;2024-01-15T04:01:39;101211.06;;;14.96;100.00
73240;BME280;61452;40.054;4.110;2024-01-15T04:06:41;101209.34;;;14.95;100.00
73240;BME280;61452;40.054;4.110;2024-01-15T04:11:43;101218.22;;;14.94;100.00
73240;BME280;61452;40.054;4.110;2024-01-15T04:16:45;101210.19;;;14.96;100.00
73240;BME280;61452;40.054;4.110;2024-01-15T04:21:48;101206.72;;;14.95;100.00
73240;BME280;61452;40.054;4.110;2024-01-15T04:26:50;101205.59;;;15.00;100.00
73240;BME280;61452;40.054;4.110;2024-01-15T04:31:53;101202.38;;;14.94;100.00
73240;BME280;61452;40.054;4.110;2024-01-15T04:36:55;101211.72;;;15.00;100.00
73240;BME280;61452;40.054;4.110;2024-01-15T04:41:57;101222.47;;;14.97;100.00
73240;BME280;61452;40.054;4.110;2024-01-15T04:46:59;101218.03;;;14.97;100.00
73240;BME280;61452;40.054;4.110;2024-01-15T04:52:01;101223.13;;;15.01;100.00
73240;BME280;61452;40.054;4.110;2024-01-15T04:57:03;101237.56;;;14.95;100.00
73240;BME280;61452;40.054;4.110;2024-01-15T05:02:05;101232.75;;;15.02;100.00
73240;BME280;61452;40.054;4.110;2024-01-15T05:07:08;101239.66;;;15.04;100.00
73240;BME280;61452;40.054;4.110;2024-01-15T05:12:10;101231.66;;;15.06;100.00
73240;BME280;61452;40.054;4.110;2024-01-15T05:17:13;101236.81;;;15.07;100.00
73240;BME280;61452;40.054;4.110;2024-01-15T05:22:15;101245.81;;;15.05;100.00
73240;BME280;61452;40.054;4.110;2024-01-15T05:27:17;101253.81;;;15.03;100.00
73240;BME280;61452;40.054;4.110;2024-01-15T05:32:19;101267.09;;;15.02;100.00
73240;BME280;61452;40.054;4.110;2024-01-15T05:37:21;101257.66;;;14.97;100.00
73240;BME280;61452;40.054;4.110;2024-01-15T05:42:24;101260.78;;;15.04;100.00
73240;BME280;61452;40.054;4.110;2024-01-15T05:47:26;101284.00;;;14.99;100.00
73240;BME280;61452;40.054;4.110;2024-01-15T05:52:28;101295.50;;;14.98;100.00
73240;BME280;61452;40.054;4.110;2024-01-15T05:57:30;101288.50;;;14.97;100.00
73240;BME280;61452;40.054;4.110;2024-01-15T06:02:32;101292.00;;;14.97;100.00
73240;BME280;61452;40.054;4.110;2024-01-15T06:07:35;101289.28;;;14.99;100.00
73240;BME280;61452;40.054;4.110;2024-01-15T06:12:38;101286.72;;;14.97;100.00
73240;BME280;61452;40.054;4.110;2024-01-15T06:17:40;101273.50;;;14.97;100.00
73240;BME280;61452;40.054;4.110;2024-01-15T06:22:42;101273.31;;;15.01;100.00
73240;BME280;61452;40.054;4.110;2024-01-15T06:27:44;101249.28;;;15.05;100.00
73240;BME280;61452;40.054;4.110;2024-01-15T06:32:47;101258.59;;;14.96;100.00
73240;BME280;61452;40.054;4.110;2024-01-15T06:37:49;101274.38;;;14.98;100.00
73240;BME280;61452;40.054;4.110;2024-01-15T06:42:51;101275.78;;;15.04;100.00
73240;BME280;61452;40.054;4.110;2024-01-15T06:47:53;101262.66;;;15.02;100.00
73240;BME280;61452;40.054;4.110;2024-01-15T06:52:55;101245.03;;;15.03;100.00
73240;BME280;61452;40.054;4.110;2024-01-15T06:57:57;101246.25;;;14.97;100.00
73240;BME280;61452;40.054;4.110;2024-01-15T07:02:59;101241.63;;;15.01;100.00
73240;BME280;61452;40.054;4.110;2024-01-15T07:08:01;101227.69;;;14.98;100.00
73240;BME280;61452;40.054;4.110;2024-01-15T07:13:04;101209.44;;;14.94;100.00
73240;BME280;61452;40.054;4.110;2024-01-15T07:18:07;101206.72;;;14.95;100.00
73240;BME280;61452;40.054;4.110;2024-01-15T07:23:09;101213.78;;;14.95;100.00
73240;BME280;61452;40.054;4.110;2024-01-15T07:28:11;101208.63;;;14.93;100.00
73240;BME280;61452;40.054;4.110;2024-01-15T07:33:13;101209.84;;;15.02;100.00
73240;BME280;61452;40.054;4.110;2024-01-15T07:38:16;101200.41;;;14.98;100.00
73240;BME280;61452;40.054;4.110;2024-01-15T07:43:18;101208.81;;;15.05;100.00
73240;BME280;61452;40.054;4.110;2024-01-15T07:48:20;101213.25;;;15.04;100.00
73240;BME280;61452;40.054;4.110;2024-01-15T07:53:22;101232.19;;;14.96;100.00
73240;BME280;61452;40.054;4.110;2024-01-15T07:58:24;101228.69;;;14.96;100.00
73240;BME280;61452;40.054;4.110;2024-01-15T08:03:26;101228.25;;;15.04;100.00
73240;BME280;61452;40.054;4.110;2024-01-15T08:08:29;101232.84;;;15.00;100.00
73240;BME280;61452;40.054;4.110;2024-01-15T08:13:31;101252.88;;;15.04;100.00
73240;BME280;61452;40.054;4.110;2024-01-15T08:18:33;101259.00;;;15.05;100.00
73240;BME280;61452;40.054;4.110;2024-01-15T08:23:35;101260.03;;;15.02;100.00
73240;BME280;61452;40.054;4.110;2024-01-15T08:28:37;101254.75;;;15.02;100.00
73240;BME280;61452;40.054;4.110;2024-01-15T08:33:40;101281.06;;;15.04;100.00
73240;BME280;61452;40.054;4.110;2024-01-15T08:38:43;101289.84;;;15.04;100.00
73240;BME280;61452;40.054;4.110;2024-01-15T08:43:45;101278.53;;;15.02;100.00
73240;BME280;61452;40.054;4.110;2024-01-15T08:48:47;101271.53;;;15.01;100.00
73240;BME280;61452;40.054;4.110;2024-01-15T08:53:49;101272.59;;;14.98;100.00
73240;BME280;61452;40.054;4.110;2024-01-15T08:58:51;101282.00;;;15.03;100.00
73240;BME280;61452;40.054;4.110;2024-01-15T09:03:53;101278.59;;;15.01;100.00
73240;BME280;61452;40.054;4.110;2024-01-15T09:08:55;101281.94;;;15.04;100.00
73240;BME280;61452;40.054;4.110;2024-01-15T09:13:58;101279.19;;;15.06;100.00
73240;BME280;61452;40.054;4.110;2024-01-15T09:19:00;101274.84;;;15.05;100.00
73240;BME280;61452;40.054;4.110;2024-01-15T09:24:02;101270.50;;;15.04;100.00
73240;BME280;61452;40.054;4.110;2024-01-15T09:29:05;101268.22;;;14.97;100.00
73240;BME280;61452;40.054;4.110;2024-01-15T09:34:07;101269.25;;;14.95;100.00
73240;BME280;61452;40.054;4.110;2024-01-15T09:39:09;101262.25;;;14.94;100.00
73240;BME280;61452;40.054;4.110;2024-01-15T09:44:13;101277.09;;;14.96;100.00
73240;BME280;61452;40.054;4.110;2024-01-15T09:49:16;101278.03;;;14.95;100.00
73240;BME280;61452;40.054;4.110;2024-01-15T09:54:19;101261.81;;;15.02;100.00
73240;BME280;61452;40.054;4.110;2024-01-15T09:59:22;101259.44;;;14.97;100.00
73240;BME280;61452;40.054;4.110;2024-01-15T10:04:26;101253.31;;;14.96;100.00
73240;BME280;61452;40.054;4.110;2024-01-15T10:09:28;101264.91;;;14.94;100.00
73240;BME280;61452;40.054;4.110;2024-01-15T10:14:31;101256.97;;;14.94;100.00
73240;BME280;61452;40.054;4.110;2024-01-15T10:19:34;101267.66;;;14.92;100.00
73240;BME280;61452;40.054;4.110;2024-01-15T10:24:36;101259.63;;;14.94;100.00
73240;BME280;61452;40.054;4.110;2024-01-15T10:29:41;101250.50;;;15.00;100.00
73240;BME280;61452;40.054;4.110;2024-01-15T10:34:43;101249.47;;;15.02;100.00
73240;BME280;61452;40.054;4.110;2024-01-15T10:39:46;101240.69;;;15.02;100.00
73240;BME280;61452;40.054;4.110;2024-01-15T10:44:48;101250.41;;;15.01;100.00
73240;BME280;61452;40.054;4.110;2024-01-15T10:49:51;101249.81;;;14.96;100.00
73240;BME280;61452;40.054;4.110;2024-01-15T10:54:54;101244.53;;;14.96;100.00
73240;BME280;61452;40.054;4.110;2024-01-15T10:59:57;101233.97;;;14.96;100.00
73240;BME280;61452;40.054;4.110;2024-01-15T11:05:00;101225.03;;;14.98;100.00
73240;BME280;61452;40.054;4.110;2024-01-15T11:10:06;101207.56;;;14.96;100.00
73240;BME280;61452;40.054;4.110;2024-01-15T11:15:09;101214.47;;;14.98;100.00
73240;BME280;61452;40.054;4.110;2024-01-15T11:20:12;101197.84;;;14.96;100.00
73240;BME280;61452;40.054;4.110;2024-01-15T11:25:14;101181.91;;;14.98;100.00
73240;BME280;61452;40.054;4.110;2024-01-15T11:30:18;101175.69;;;14.99;100.00
73240;BME280;61452;40.054;4.110;2024-01-15T11:35:49;101166.91;;;14.98;100.00
73240;BME280;61452;40.054;4.110;2024-01-15T11:40:52;101154.66;;;14.97;100.00
73240;BME280;61452;40.054;4.110;2024-01-15T11:45:54;101157.09;;;15.01;100.00
73240;BME280;61452;40.054;4.110;2024-01-15T11:50:57;101147.00;;;15.07;100.00
73240;BME280;61452;40.054;4.110;2024-01-15T11:56:02;101144.66;;;15.03;100.00
73240;BME280;61452;40.054;4.110;2024-01-15T12:01:04;101136.53;;;15.06;100.00
73240;BME280;61452;40.054;4.110;2024-01-15T12:06:08;101122.56;;;15.04;100.00
73240;BME280;61452;40.054;4.110;2024-01-15T12:11:13;101117.94;;;15.07;100.00
73240;BME280;61452;40.054;4.110;2024-01-15T12:16:17;101107.66;;;15.03;100.00
73240;BME280;61452;40.054;4.110;2024-01-15T12:21:19;101091.81;;;15.03;100.00
73240;BME280;61452;40.054;4.110;2024-01-15T12:26:22;101080.41;;;15.02;100.00
73240;BME280;61452;40.054;4.110;2024-01-15T12:31:24;101081.25;;;15.03;100.00
73240;BME280;61452;40.054;4.110;2024-01-15T12:36:26;101068.88;;;15.03;100.00
73240;BME280;61452;40.054;4.110;2024-01-15T12:41:29;101061.06;;;15.02;100.00
73240;BME280;61452;40.054;4.110;2024-01-15T12:46:31;101034.72;;;15.00;100.00
73240;BME280;61452;40.054;4.110;2024-01-15T12:51:34;101039.91;;;15.02;100.00
73240;BME280;61452;40.054;4.110;2024-01-15T12:56:36;101033.31;;;15.09;100.00
73240;BME280;61452;40.054;4.110;2024-01-15T13:01:38;101031.81;;;15.05;100.00
73240;BME280;61452;40.054;4.110;2024-01-15T13:06:42;101028.31;;;15.04;100.00
73240;BME280;61452;40.054;4.110;2024-01-15T13:11:45;101017.75;;;15.04;100.00
73240;BME280;61452;40.054;4.110;2024-01-15T13:16:48;101016.91;;;15.04;100.00
73240;BME280;61452;40.054;4.110;2024-01-15T13:21:50;101003.59;;;15.05;100.00
73240;BME280;61452;40.054;4.110;2024-01-15T13:26:53;101013.19;;;15.06;100.00
73240;BME280;61452;40.054;4.110;2024-01-15T13:31:55;101001.69;;;15.07;100.00
73240;BME280;61452;40.054;4.110;2024-01-15T13:36:57;100988.78;;;15.03;100.00
73240;BME280;61452;40.054;4.110;2024-01-15T13:41:59;101000.44;;;15.13;100.00
73240;BME280;61452;40.054;4.110;2024-01-15T13:47:02;100998.78;;;15.12;100.00
73240;BME280;61452;40.054;4.110;2024-01-15T13:52:04;100978.84;;;15.06;100.00
73240;BME280;61452;40.054;4.110;2024-01-15T13:57:06;100989.53;;;15.05;100.00
73240;BME280;61452;40.054;4.110;2024-01-15T14:02:08;101001.50;;;15.10;100.00
73240;BME280;61452;40.054;4.110;2024-01-15T14:07:12;100987.38;;;15.11;100.00
73240;BME280;61452;40.054;4.110;2024-01-15T14:12:14;100980.28;;;15.12;100.00
73240;BME280;61452;40.054;4.110;2024-01-15T14:17:17;100975.94;;;15.11;100.00
73240;BME280;61452;40.054;4.110;2024-01-15T14:22:19;100976.03;;;15.09;100.00
73240;BME280;61452;40.054;4.110;2024-01-15T14:27:21;100978.47;;;15.12;100.00
73240;BME280;61452;40.054;4.110;2024-01-15T14:32:23;100966.41;;;15.08;100.00
73240;BME280;61452;40.054;4.110;2024-01-15T14:37:25;100968.13;;;15.09;100.00
73240;BME280;61452;40.054;4.110;2024-01-15T14:42:28;100967.09;;;15.12;100.00
73240;BME280;61452;40.054;4.110;2024-01-15T14:47:31;100959.16;;;15.12;100.00
73240;BME280;61452;40.054;4.110;2024-01-15T14:52:33;100947.63;;;15.13;100.00
73240;BME280;61452;40.054;4.110;2024-01-15T14:57:35;100945.09;;;15.11;100.00
73240;BME280;61452;40.054;4.110;2024-01-15T15:02:39;100955.66;;;15.11;100.00
73240;BME280;61452;40.054;4.110;2024-01-15T15:07:41;100952.16;;;15.11;100.00
73240;BME280;61452;40.054;4.110;2024-01-15T15:12:43;100948.69;;;15.10;100.00
73240;BME280;61452;40.054;4.110;2024-01-15T15:17:45;100946.75;;;15.12;100.00
73240;BME280;61452;40.054;4.110;2024-01-15T15:22:47;100946.50;;;15.17;100.00
73240;BME280;61452;40.054;4.110;2024-01-15T15:27:49;100948.28;;;15.16;100.00
73240;BME280;61452;40.054;4.110;2024-01-15T15:32:52;100949.22;;;15.15;100.00
73240;BME280;61452;40.054;4.110;2024-01-15T15:37:57;100939.50;;;15.16;100.00
73240;BME280;61452;40.054;4.110;2024-01-15T15:42:59;100935.25;;;15.13;100.00
73240;BME280;61452;40.054;4.110;2024-01-15T15:48:01;100933.38;;;15.15;100.00
73240;BME280;61452;40.054;4.110;2024-01-15T15:53:03;100940.34;;;15.16;100.00
73240;BME280;61452;40.054;4.110;2024-01-15T15:58:05;100957.06;;;15.17;100.00
73240;BME280;61452;40.054;4.110;2024-01-15T16:03:08;100950.53;;;15.22;100.00
73240;BME280;61452;40.054;4.110;2024-01-15T16:08:10;100958.34;;;15.24;100.00
73240;BME280;61452;40.054;4.110;2024-01-15T16:13:12;100949.44;;;15.25;100.00
73240;BME280;61452;40.054;4.110;2024-01-15T16:18:16;100960.34;;;15.20;100.00
73240;BME280;61452;40.054;4.110;2024-01-15T16:23:38;100961.72;;;15.26;100.00
73240;BME280;61452;40.054;4.110;2024-01-15T16:29:00;100967.78;;;15.28;100.00
73240;BME280;61452;40.054;4.110;2024-01-15T16:34:05;100967.22;;;15.23;100.00
73240;BME280;61452;40.054;4.110;2024-01-15T16:39:11;100984.13;;;15.20;100.00
73240;BME280;61452;40.054;4.110;2024-01-15T16:44:13;100980.63;;;15.20;100.00
73240;BME280;61452;40.054;4.110;2024-01-15T16:49:15;100979.69;;;15.21;100.00
73240;BME280;61452;40.054;4.110;2024-01-15T16:54:20;100969.13;;;15.21;100.00
73240;BME280;61452;40.054;4.110;2024-01-15T16:59:22;100980.53;;;15.21;100.00
73240;BME280;61452;40.054;4.110;2024-01-15T17:04:24;100976.94;;;15.22;100.00
73240;BME280;61452;40.054;4.110;2024-01-15T17:09:26;100978.66;;;15.23;100.00
73240;BME280;61452;40.054;4.110;2024-01-15T17:14:29;100972.19;;;15.27;100.00
73240;BME280;61452;40.054;4.110;2024-01-15T17:19:31;100970.72;;;15.23;100.00
73240;BME280;61452;40.054;4.110;2024-01-15T17:24:33;100968.16;;;15.22;100.00
73240;BME280;61452;40.054;4.110;2024-01-15T17:29:36;100973.53;;;15.20;100.00
73240;BME280;61452;40.054;4.110;2024-01-15T17:34:39;100970.06;;;15.20;100.00
73240;BME280;61452;40.054;4.110;2024-01-15T17:39:41;100989.75;;;15.28;100.00
73240;BME280;61452;40.054;4.110;2024-01-15T17:44:44;101006.47;;;15.29;100.00
73240;BME280;61452;40.054;4.110;2024-01-15T17:49:46;101007.72;;;15.23;100.00
73240;BME280;61452;40.054;4.110;2024-01-15T17:54:48;101017.88;;;15.29;100.00
73240;BME280;61452;40.054;4.110;2024-01-15T17:59:50;101009.03;;;15.30;100.00
73240;BME280;61452;40.054;4.110;2024-01-15T18:04:52;101019.59;;;15.30;100.00
73240;BME280;61452;40.054;4.110;2024-01-15T18:09:54;101021.38;;;15.30;100.00
73240;BME280;61452;40.054;4.110;2024-01-15T18:14:57;101037.88;;;15.33;100.00
73240;BME280;61452;40.054;4.110;2024-01-15T18:20:00;101046.19;;;15.27;100.00
73240;BME280;61452;40.054;4.110;2024-01-15T18:25:02;101036.56;;;15.26;100.00
73240;BME280;61452;40.054;4.110;2024-01-15T18:30:05;101023.19;;;15.29;100.00
73240;BME280;61452;40.054;4.110;2024-01-15T18:35:07;101014.19;;;15.32;100.00
73240;BME280;61452;40.054;4.110;2024-01-15T18:40:10;101023.91;;;15.31;100.00
73240;BME280;61452;40.054;4.110;2024-01-15T18:45:12;101026.66;;;15.30;100.00
73240;BME280;61452;40.054;4.110;2024-01-15T18:50:14;101058.56;;;15.27;100.00
73240;BME280;61452;40.054;4.110;2024-01-15T18:55:16;101031.84;;;15.31;100.00
73240;BME280;61452;40.054;4.110;2024-01-15T19:00:20;101032.59;;;15.33;100.00
73240;BME280;61452;40.054;4.110;2024-01-15T19:05:23;101059.88;;;15.34;100.00
73240;BME280;61452;40.054;4.110;2024-01-15T19:10:26;101050.25;;;15.33;100.00
73240;BME280;61452;40.054;4.110;2024-01-15T19:15:28;101053.72;;;15.33;100.00
73240;BME280;61452;40.054;4.110;2024-01-15T19:20:30;101063.53;;;15.31;100.00
73240;BME280;61452;40.054;4.110;2024-01-15T19:25:34;101051.09;;;15.33;100.00
73240;BME280;61452;40.054;4.110;2024-01-15T19:30:36;101064.13;;;15.36;100.00
73240;BME280;61452;40.054;4.110;2024-01-15T19:35:38;101075.63;;;15.35;100.00
73240;BME280;61452;40.054;4.110;2024-01-15T19:40:40;101089.78;;;15.34;100.00
73240;BME280;61452;40.054;4.110;2024-01-15T19:45:46;101099.50;;;15.34;100.00
73240;BME280;61452;40.054;4.110;2024-01-15T19:50:48;101096.88;;;15.34;100.00
73240;BME280;61452;40.054;4.110;2024-01-15T19:55:50;101096.88;;;15.34;100.00
73240;BME280;61452;40.054;4.110;2024-01-15T20:00:52;101111.97;;;15.32;100.00
73240;BME280;61452;40.054;4.110;2024-01-15T20:05:54;101111.69;;;15.36;100.00
73240;BME280;61452;40.054;4.110;2024-01-15T20:10:56;101097.41;;;15.39;100.00
73240;BME280;61452;40.054;4.110;2024-01-15T20:16:05;101111.69;;;15.36;100.00
73240;BME280;61452;40.054;4.110;2024-01-15T20:21:07;101116.78;;;15.39;100.00
73240;BME280;61452;40.054;4.110;2024-01-15T20:26:10;101127.66;;;15.35;100.00
73240;BME280;61452;40.054;4.110;2024-01-15T20:31:13;101119.81;;;15.33;100.00
73240;BME280;61452;40.054;4.110;2024-01-15T20:36:15;101118.09;;;15.32;100.00
73240;BME280;61452;40.054;4.110;2024-01-15T20:41:17;101125.00;;;15.35;100.00
73240;BME280;61452;40.054;4.110;2024-01-15T20:46:19;101139.16;;;15.34;100.00
73240;BME280;61452;40.054;4.110;2024-01-15T20:51:21;101148.88;;;15.33;100.00
73240;BME280;61452;40.054;4.110;2024-01-15T20:56:23;101147.56;;;15.41;100.00
73240;BME280;61452;40.054;4.110;2024-01-15T21:01:25;101155.09;;;15.32;100.00
73240;BME280;61452;40.054;4.110;2024-01-15T21:06:28;101156.72;;;15.35;100.00
73240;BME280;61452;40.054;4.110;2024-01-15T21:11:30;101161.63;;;15.41;100.00
73240;BME280;61452;40.054;4.110;2024-01-15T21:16:32;101163.22;;;15.44;100.00
73240;BME280;61452;40.054;4.110;2024-01-15T21:21:45;101168.41;;;15.45;100.00
73240;BME280;61452;40.054;4.110;2024-01-15T21:26:49;101165.28;;;15.38;100.00
73240;BME280;61452;40.054;4.110;2024-01-15T21:31:51;101168.69;;;15.41;100.00
73240;BME280;61452;40.054;4.110;2024-01-15T21:36:53;101169.47;;;15.43;100.00
73240;BME280;61452;40.054;4.110;2024-01-15T21:41:56;101178.44;;;15.40;100.00
73240;BME280;61452;40.054;4.110;2024-01-15T21:46:58;101183.50;;;15.43;100.00
73240;BME280;61452;40.054;4.110;2024-01-15T21:52:00;101173.91;;;15.42;100.00
73240;BME280;61452;40.054;4.110;2024-01-15T21:57:02;101186.91;;;15.45;100.00
73240;BME280;61452;40.054;4.110;2024-01-15T22:02:05;101203.63;;;15.46;100.00
73240;BME280;61452;40.054;4.110;2024-01-15T22:07:10;101214.28;;;15.44;100.00
73240;BME280;61452;40.054;4.110;2024-01-15T22:12:12;101218.72;;;15.44;100.00
73240;BME280;61452;40.054;4.110;2024-01-15T22:17:14;101215.13;;;15.45;100.00
73240;BME280;61452;40.054;4.110;2024-01-15T22:22:17;101218.06;;;15.40;100.00
73240;BME280;61452;40.054;4.110;2024-01-15T22:27:19;101232.91;;;15.43;100.00
73240;BME280;61452;40.054;4.110;2024-01-15T22:32:21;101243.56;;;15.41;100.00
73240;BME280;61452;40.054;4.110;2024-01-15T22:37:24;101247.72;;;15.45;100.00
73240;BME280;61452;40.054;4.110;2024-01-15T22:42:26;101241.09;;;15.38;100.00
73240;BME280;61452;40.054;4.110;2024-01-15T22:47:28;101240.84;;;15.43;100.00
73240;BME280;61452;40.054;4.110;2024-01-15T22:52:30;101245.06;;;15.45;100.00
73240;BME280;61452;40.054;4.110;2024-01-15T22:57:34;101235.34;;;15.46;100.00
73240;BME280;61452;40.054;4.110;2024-01-15T23:02:36;101246.13;;;15.43;100.00
73240;BME280;61452;40.054;4.110;2024-01-15T23:07:40;101239.97;;;15.42;100.00
73240;BME280;61452;40.054;4.110;2024-01-15T23:12:42;101250.56;;;15.42;100.00
73240;BME280;61452;40.054;4.110;2024-01-15T23:17:44;101260.75;;;15.48;100.00
73240;BME280;61452;40.054;4.110;2024-01-15T23:22:48;101256.31;;;15.49;100.00
73240;BME280;61452;40.054;4.110;2024-01-15T23:27:50;101253.94;;;15.44;100.00
73240;BME280;61452;40.054;4.110;2024-01-15T23:32:53;101267.72;;;15.49;100.00
73240;BME280;61452;40.054;4.110;2024-01-15T23:37:55;101271.41;;;15.47;100.00
73240;BME280;61452;40.054;4.110;2024-01-15T23:42:57;101266.97;;;15.47;100.00
73240;BME280;61452;40.054;4.110;2024-01-15T23:47:59;101276.50;;;15.50;100.00
73240;BME280;61452;40.054;4.110;2024-01-15T23:53:01;101289.16;;;15.45;100.00
73240;BME280;61452;40.054;4.110;2024-01-15T23:58:04;101292.00;;;15.42;100.00
